Time;durP1;ratioP1;P1;durP2;ratioP2;P2;SDS_P1;SDS_P2;PMS_P1;PMS_P2;Temp;Humidity;BMP_temperature;BMP_pressure;BME280_temperature;BME280_humidity;BME280_pressure;Samples;Min_cycle;Max_cycle;Signal;HPM_P1;HPM_P2
2022/10/31 00:00:18;;;;;;;;;;;;;;;;;;5116081;28;19924;-60
2022/10/31 00:02:46;;;;;;;;;;;;;;;;;;5116117;28;19928;-59
2022/10/31 00:05:12;;;;;;;;;;;;;;;;;;5115808;28;19931;-59
2022/10/31 00:07:39;;;;;;;;;;;;;;;;;;5116138;27;19923;-60
2022/10/31 00:10:06;;;;;;;;;;;;;;;;;;5116255;28;19924;-60
2022/10/31 00:12:33;;;;;;;;;;;;;;;;;;5115880;28;20377;-60
2022/10/31 00:14:59;;;;;;;;;;;;;;;;;;5115909;28;19923;-60
2022/10/31 00:17:26;;;;;;;;;;;;;;;;;;5115607;28;19923;-59
2022/10/31 00:19:53;;;;;;;;;;;;;;;;;;5115801;28;20013;-60
2022/10/31 00:22:20;;;;;;;;;;;;;;;;;;5115609;28;19924;-60
2022/10/31 00:24:47;;;;;;;;;;;;;;;;;;5115893;28;19928;-59
2022/10/31 00:27:13;;;;;;;;;;;;;;;;;;5115446;28;19935;-60
2022/10/31 00:29:40;;;;;;;;;;;;;;;;;;5115614;28;19924;-60
2022/10/31 00:32:06;;;;;;;;;;;;;;;;;;5115260;28;19973;-60
2022/10/31 00:34:33;;;;;;;;;;;;;;;;;;5115769;28;19931;-60
2022/10/31 00:37:01;;;;;;;;;;;;;;;;;;5115574;28;19928;-58
2022/10/31 00:39:27;;;;;;;;;;;;;;;;;;5115673;28;19923;-58
2022/10/31 00:41:54;;;;;;;;;;;;;;;;;;5115479;28;20422;-60
2022/10/31 00:44:20;;;;;;;;;;;;;;;;;;5115352;28;20393;-59
2022/10/31 00:46:47;;;;;;;;;;;;;;;;;;5115711;28;20371;-58
2022/10/31 00:49:13;;;;;;;;;;;;;;;;;;5114863;28;19928;-58
2022/10/31 00:51:40;;;;;;;;;;;;;;;;;;5115133;28;19928;-59
2022/10/31 00:54:08;;;;;;;;;;;;;;;;;;5115102;28;19930;-60
2022/10/31 00:56:35;;;;;;;;;;;;;;;;;;5115115;28;19928;-60
2022/10/31 00:59:01;;;;;;;;;;;;;;;;;;5115013;28;20304;-60
2022/10/31 01:01:28;;;;;;;;;;;;;;;;;;5114914;28;19930;-60
2022/10/31 01:03:54;;;;;;;;;;;;;;;;;;5114902;28;19927;-60
2022/10/31 01:06:21;;;;;;;;;;;;;;;;;;5114893;28;19954;-59
2022/10/31 01:08:48;;;;;;;;;;;;;;;;;;5114853;28;19931;-57
2022/10/31 01:11:17;;;;;;;;;;;;;;;;;;5114823;28;19931;-58
2022/10/31 01:13:44;;;;;;;;;;;;;;;;;;5115046;27;20400;-59
2022/10/31 01:16:12;;;;;;;;;;;;;;;;;;5114761;28;19933;-59
2022/10/31 01:18:39;;;;;;;;;;;;;;;;;;5114501;28;19924;-58
2022/10/31 01:21:07;;;;;;;;;;;;;;;;;;5114802;28;19924;-59
2022/10/31 01:23:33;;;;;;;;;;;;;;;;;;5114368;28;19927;-58
2022/10/31 01:26:04;;;;;;;;;;;;;;;;;;5114634;28;19931;-58
2022/10/31 01:28:32;;;;;;;;;;;;;;;;;;5114405;28;19974;-60
2022/10/31 01:31:01;;;;;;;;;;;;;;;;;;5114602;28;19924;-60
2022/10/31 01:33:29;;;;;;;;;;;;;;;;;;5114326;28;20372;-59
2022/10/31 01:35:55;;;;;;;;;;;;;;;;;;5114528;28;19947;-60
2022/10/31 01:38:22;;;;;;;;;;;;;;;;;;5114210;28;20257;-60
2022/10/31 01:40:49;;;;;;;;;;;;;;;;;;5114584;28;20292;-58
2022/10/31 01:43:16;;;;;;;;;;;;;;;;;;5114151;28;20007;-58
2022/10/31 01:45:45;;;;;;;;;;;;;;;;;;5113565;28;19924;-59
2022/10/31 01:48:14;;;;;;;;;;;;;;;;;;5114155;28;19992;-58
2022/10/31 01:50:41;;;;;;;;;;;;;;;;;;5114184;28;19931;-59
2022/10/31 01:53:09;;;;;;;;;;;;;;;;;;5114406;28;20334;-58
2022/10/31 01:55:36;;;;;;;;;;;;;;;;;;5114116;28;19924;-58
2022/10/31 01:58:05;;;;;;;;;;;;;;;;;;5113967;28;19944;-59
2022/10/31 02:00:31;;;;;;;;;;;;;;;;;;5113873;28;19992;-60
2022/10/31 02:02:59;;;;;;;;;;;;;;;;;;5113668;28;19946;-55
2022/10/31 02:05:28;;;;;;;;;;;;;;;;;;5113819;28;19924;-58
2022/10/31 02:07:58;;;;;;;;;;;;;;;;;;5114312;28;19954;-58
2022/10/31 02:10:24;;;;;;;;;;;;;;;;;;5113989;28;19928;-59
2022/10/31 02:12:52;;;;;;;;;;;;;;;;;;5114144;28;19924;-60
2022/10/31 02:15:19;;;;;;;;;;;;;;;;;;5113846;28;20381;-59
2022/10/31 02:17:46;;;;;;;;;;;;;;;;;;5113818;28;19931;-60
2022/10/31 02:20:18;;;;;;;;;;;;;;;;;;5114106;28;19949;-59
2022/10/31 02:22:53;;;;;;;;;;;;;;;;;;5113712;28;20334;-59
2022/10/31 02:25:26;;;;;;;;;;;;;;;;;;5113705;28;19927;-59
2022/10/31 02:28:02;;;;;;;;;;;;;;;;;;5113423;28;19931;-59
2022/10/31 02:30:31;;;;;;;;;;;;;;;;;;5113691;28;19923;-60
2022/10/31 02:33:08;;;;;;;;;;;;;;;;;;5113293;28;19957;-59
2022/10/31 02:35:40;;;;;;;;;;;;;;;;;;5113678;28;19928;-59
2022/10/31 02:38:12;;;;;;;;;;;;;;;;;;5113544;28;20343;-60
2022/10/31 02:40:43;;;;;;;;;;;;;;;;;;5113473;28;19931;-59
2022/10/31 02:43:13;;;;;;;;;;;;;;;;;;5113482;28;19924;-58
2022/10/31 02:45:43;;;;;;;;;;;;;;;;;;5113276;28;19924;-59
2022/10/31 02:48:13;;;;;;;;;;;;;;;;;;5113586;28;19923;-59
2022/10/31 02:50:41;;;;;;;;;;;;;;;;;;5113865;28;19931;-58
2022/10/31 02:53:08;;;;;;;;;;;;;;;;;;5113300;28;19973;-60
2022/10/31 02:55:45;;;;;;;;;;;;;;;;;;5112776;28;20408;-60
2022/10/31 02:58:13;;;;;;;;;;;;;;;;;;5113335;28;19927;-60
2022/10/31 03:00:46;;;;;;;;;;;;;;;;;;5113088;28;19992;-58
2022/10/31 03:03:16;;;;;;;;;;;;;;;;;;5113147;28;19924;-59
2022/10/31 03:05:49;;;;;;;;;;;;;;;;;;5113194;28;19928;-60
2022/10/31 03:08:20;;;;;;;;;;;;;;;;;;5113437;28;19928;-60
2022/10/31 03:10:48;;;;;;;;;;;;;;;;;;5113302;28;19931;-60
2022/10/31 03:13:22;;;;;;;;;;;;;;;;;;5113227;28;19967;-59
2022/10/31 03:15:50;;;;;;;;;;;;;;;;;;5113209;28;19927;-60
2022/10/31 03:18:22;;;;;;;;;;;;;;;;;;5113103;28;19931;-60
2022/10/31 03:20:51;;;;;;;;;;;;;;;;;;5113405;28;19931;-53
2022/10/31 03:23:18;;;;;;;;;;;;;;;;;;5112814;28;19985;-54
2022/10/31 03:25:46;;;;;;;;;;;;;;;;;;5113292;28;19928;-59
2022/10/31 03:28:14;;;;;;;;;;;;;;;;;;5112814;28;19945;-55
2022/10/31 03:30:42;;;;;;;;;;;;;;;;;;5112918;28;19985;-60
2022/10/31 03:33:11;;;;;;;;;;;;;;;;;;5112807;28;20406;-60
2022/10/31 03:35:42;;;;;;;;;;;;;;;;;;5112612;28;19976;-59
2022/10/31 03:38:09;;;;;;;;;;;;;;;;;;5112718;28;19930;-58
2022/10/31 03:40:37;;;;;;;;;;;;;;;;;;5112436;28;19935;-59
2022/10/31 03:43:07;;;;;;;;;;;;;;;;;;5112880;28;20389;-56
2022/10/31 03:45:34;;;;;;;;;;;;;;;;;;5112422;28;19931;-58
2022/10/31 03:48:01;;;;;;;;;;;;;;;;;;5112555;28;19927;-60
2022/10/31 03:50:29;;;;;;;;;;;;;;;;;;5112429;28;19970;-59
2022/10/31 03:53:02;;;;;;;;;;;;;;;;;;5112591;28;19934;-59
2022/10/31 03:55:31;;;;;;;;;;;;;;;;;;5112708;28;19923;-60
2022/10/31 03:57:59;;;;;;;;;;;;;;;;;;5112450;28;19924;-59
2022/10/31 04:00:26;;;;;;;;;;;;;;;;;;5112150;28;20305;-61
2022/10/31 04:02:56;;;;;;;;;;;;;;;;;;5112443;28;19924;-61
2022/10/31 04:05:23;;;;;;;;;;;;;;;;;;5112508;28;20463;-61
2022/10/31 04:07:52;;;;;;;;;;;;;;;;;;5113246;28;19924;-58
2022/10/31 04:10:21;;;;;;;;;;;;;;;;;;5116102;28;19931;-60
2022/10/31 04:12:50;;;;;;;;;;;;;;;;;;5115993;28;19923;-60
2022/10/31 04:15:17;;;;;;;;;;;;;;;;;;5115960;28;20205;-59
2022/10/31 04:17:45;;;;;;;;;;;;;;;;;;5115803;28;19923;-60
2022/10/31 04:20:12;;;;;;;;;;;;;;;;;;5116188;28;19931;-60
2022/10/31 04:22:38;;;;;;;;;;;;;;;;;;5115834;27;19931;-61
2022/10/31 04:25:05;;;;;;;;;;;;;;;;;;5115594;28;19931;-60
2022/10/31 04:27:33;;;;;;;;;;;;;;;;;;5115554;28;19939;-59
2022/10/31 04:30:00;;;;;;;;;;;;;;;;;;5115809;28;19931;-61
2022/10/31 04:32:27;;;;;;;;;;;;;;;;;;5115815;28;19974;-60
2022/10/31 04:34:53;;;;;;;;;;;;;;;;;;5115561;28;19923;-59
2022/10/31 04:37:20;;;;;;;;;;;;;;;;;;5115831;28;20339;-60
2022/10/31 04:39:46;;;;;;;;;;;;;;;;;;5115501;28;19931;-58
2022/10/31 04:42:13;;;;;;;;;;;;;;;;;;5115910;28;19928;-61
2022/10/31 04:44:41;;;;;;;;;;;;;;;;;;5115544;28;20289;-60
2022/10/31 04:47:07;;;;;;;;;;;;;;;;;;5115789;28;19931;-60
2022/10/31 04:49:34;;;;;;;;;;;;;;;;;;5115391;28;19928;-59
2022/10/31 04:52:00;;;;;;;;;;;;;;;;;;5115764;28;20308;-61
2022/10/31 04:54:27;;;;;;;;;;;;;;;;;;5115398;28;19931;-62
2022/10/31 04:56:54;;;;;;;;;;;;;;;;;;5115440;28;19924;-59
2022/10/31 04:59:20;;;;;;;;;;;;;;;;;;5115220;28;19931;-59
2022/10/31 05:01:48;;;;;;;;;;;;;;;;;;5115066;28;19928;-59
2022/10/31 05:04:15;;;;;;;;;;;;;;;;;;5115435;28;19923;-60
2022/10/31 05:06:41;;;;;;;;;;;;;;;;;;5115628;28;19923;-58
2022/10/31 05:09:08;;;;;;;;;;;;;;;;;;5115552;27;19923;-60
2022/10/31 05:11:34;;;;;;;;;;;;;;;;;;5115037;28;19976;-60
2022/10/31 05:14:01;;;;;;;;;;;;;;;;;;5115191;28;19923;-57
2022/10/31 05:16:28;;;;;;;;;;;;;;;;;;5115082;28;19924;-59
2022/10/31 05:18:56;;;;;;;;;;;;;;;;;;5115099;28;19924;-59
2022/10/31 05:21:23;;;;;;;;;;;;;;;;;;5115118;27;19944;-60
2022/10/31 05:23:50;;;;;;;;;;;;;;;;;;5115101;28;19924;-60
2022/10/31 05:26:16;;;;;;;;;;;;;;;;;;5114689;28;20066;-59
2022/10/31 05:28:43;;;;;;;;;;;;;;;;;;5114969;28;19930;-60
2022/10/31 05:31:09;;;;;;;;;;;;;;;;;;5114804;28;20351;-61
2022/10/31 05:33:36;;;;;;;;;;;;;;;;;;5114703;28;19931;-58
2022/10/31 05:36:04;;;;;;;;;;;;;;;;;;5114599;28;19928;-57
2022/10/31 05:38:31;;;;;;;;;;;;;;;;;;5114091;28;19988;-54
2022/10/31 05:40:59;;;;;;;;;;;;;;;;;;5114102;28;19923;-57
2022/10/31 05:43:26;;;;;;;;;;;;;;;;;;5113738;28;19969;-58
2022/10/31 05:45:53;;;;;;;;;;;;;;;;;;5113692;28;19924;-55
2022/10/31 05:48:19;;;;;;;;;;;;;;;;;;5112832;28;19976;-56
2022/10/31 05:50:47;;;;;;;;;;;;;;;;;;5113961;28;20380;-56
2022/10/31 05:53:16;;;;;;;;;;;;;;;;;;5113492;28;19942;-58
2022/10/31 05:55:43;;;;;;;;;;;;;;;;;;5113704;28;19924;-56
2022/10/31 05:58:09;;;;;;;;;;;;;;;;;;5113926;28;19930;-54
2022/10/31 06:00:36;;;;;;;;;;;;;;;;;;5113573;28;19924;-57
2022/10/31 06:03:04;;;;;;;;;;;;;;;;;;5113691;28;19924;-56
2022/10/31 06:05:31;;;;;;;;;;;;;;;;;;5113633;28;19931;-54
2022/10/31 06:07:58;;;;;;;;;;;;;;;;;;5113109;28;20006;-57
2022/10/31 06:10:26;;;;;;;;;;;;;;;;;;5113088;28;19968;-56
2022/10/31 06:12:52;;;;;;;;;;;;;;;;;;5113192;28;20395;-58
2022/10/31 06:15:19;;;;;;;;;;;;;;;;;;5093111;28;19924;-56
2022/10/31 06:17:45;;;;;;;;;;;;;;;;;;5112349;28;19977;-58
2022/10/31 06:20:12;;;;;;;;;;;;;;;;;;5113607;28;19953;-57
2022/10/31 06:22:39;;;;;;;;;;;;;;;;;;5113451;28;19923;-59
2022/10/31 06:25:05;;;;;;;;;;;;;;;;;;5113281;28;19924;-57
2022/10/31 06:27:33;;;;;;;;;;;;;;;;;;5113004;28;19927;-58
2022/10/31 06:30:00;;;;;;;;;;;;;;;;;;5113136;28;19930;-57
2022/10/31 06:32:27;;;;;;;;;;;;;;;;;;5112762;28;20339;-57
2022/10/31 06:34:53;;;;;;;;;;;;;;;;;;5113266;28;19923;-53
2022/10/31 06:37:26;;;;;;;;;;;;;;;;;;5113096;28;19923;-53
2022/10/31 06:39:52;;;;;;;;;;;;;;;;;;5113384;28;19924;-54
2022/10/31 06:42:19;;;;;;;;;;;;;;;;;;5113200;28;19924;-57
2022/10/31 06:44:47;;;;;;;;;;;;;;;;;;5114061;28;20389;-57
2022/10/31 06:47:13;;;;;;;;;;;;;;;;;;5113224;28;20369;-53
2022/10/31 06:49:40;;;;;;;;;;;;;;;;;;5113444;28;19924;-54
2022/10/31 06:52:06;;;;;;;;;;;;;;;;;;5113201;28;19946;-55
2022/10/31 06:54:33;;;;;;;;;;;;;;;;;;5113467;28;19924;-57
2022/10/31 06:57:00;;;;;;;;;;;;;;;;;;5113256;28;20292;-55
2022/10/31 06:59:26;;;;;;;;;;;;;;;;;;5112804;28;19927;-58
2022/10/31 07:01:54;;;;;;;;;;;;;;;;;;5113390;28;19928;-55
2022/10/31 07:04:22;;;;;;;;;;;;;;;;;;5113041;28;19924;-58
2022/10/31 07:06:51;;;;;;;;;;;;;;;;;;5112579;28;20308;-54
2022/10/31 07:09:17;;;;;;;;;;;;;;;;;;5113028;28;19977;-53
2022/10/31 07:11:44;;;;;;;;;;;;;;;;;;5112795;28;19928;-53
2022/10/31 07:14:11;;;;;;;;;;;;;;;;;;5113170;28;20233;-52
2022/10/31 07:16:37;;;;;;;;;;;;;;;;;;5113283;28;20404;-52
2022/10/31 07:19:05;;;;;;;;;;;;;;;;;;5112683;28;20462;-54
2022/10/31 07:21:32;;;;;;;;;;;;;;;;;;5112352;28;20289;-55
2022/10/31 07:23:58;;;;;;;;;;;;;;;;;;5112766;28;19934;-56
2022/10/31 07:26:25;;;;;;;;;;;;;;;;;;5112553;28;19931;-55
2022/10/31 07:28:52;;;;;;;;;;;;;;;;;;5112957;28;19927;-54
2022/10/31 07:31:19;;;;;;;;;;;;;;;;;;5112009;28;19981;-52
2022/10/31 07:33:45;;;;;;;;;;;;;;;;;;5112205;28;19924;-55
2022/10/31 07:36:13;;;;;;;;;;;;;;;;;;5112095;28;19969;-52
2022/10/31 07:38:40;;;;;;;;;;;;;;;;;;5111827;28;19930;-54
2022/10/31 07:41:06;;;;;;;;;;;;;;;;;;5112262;28;19935;-52
2022/10/31 07:43:33;;;;;;;;;;;;;;;;;;5114597;28;19973;-53
2022/10/31 07:45:59;;;;;;;;;;;;;;;;;;5116195;28;19980;-56
2022/10/31 07:48:26;;;;;;;;;;;;;;;;;;5115973;28;19945;-53
2022/10/31 07:50:52;;;;;;;;;;;;;;;;;;5115740;28;19927;-54
2022/10/31 07:53:20;;;;;;;;;;;;;;;;;;5115716;28;19927;-52
2022/10/31 07:55:47;;;;;;;;;;;;;;;;;;5116132;28;19938;-52
2022/10/31 07:58:14;;;;;;;;;;;;;;;;;;5115779;28;19924;-55
2022/10/31 08:00:42;;;;;;;;;;;;;;;;;;5115913;28;19931;-54
2022/10/31 08:03:09;;;;;;;;;;;;;;;;;;5113144;28;20296;-54
2022/10/31 08:05:35;;;;;;;;;;;;;;;;;;5112899;28;19932;-53
2022/10/31 08:08:02;;;;;;;;;;;;;;;;;;5113798;27;19924;-54
2022/10/31 08:10:30;;;;;;;;;;;;;;;;;;5113880;28;19949;-54
2022/10/31 08:12:58;;;;;;;;;;;;;;;;;;5114057;27;19924;-56
2022/10/31 08:15:25;;;;;;;;;;;;;;;;;;5113929;28;19946;-53
2022/10/31 08:17:51;;;;;;;;;;;;;;;;;;5113711;28;19924;-54
2022/10/31 08:20:18;;;;;;;;;;;;;;;;;;5113748;28;19986;-55
2022/10/31 08:22:53;;;;;;;;;;;;;;;;;;5113612;28;19928;-55
2022/10/31 08:25:19;;;;;;;;;;;;;;;;;;5113512;28;19932;-54
2022/10/31 08:27:50;;;;;;;;;;;;;;;;;;5113081;28;19923;-54
2022/10/31 08:30:17;;;;;;;;;;;;;;;;;;5113758;28;19977;-55
2022/10/31 08:32:43;;;;;;;;;;;;;;;;;;5113133;28;20009;-56
2022/10/31 08:35:10;;;;;;;;;;;;;;;;;;5113428;28;19924;-51
2022/10/31 08:37:36;;;;;;;;;;;;;;;;;;5113329;28;20254;-52
2022/10/31 08:40:03;;;;;;;;;;;;;;;;;;5113412;28;19928;-54
2022/10/31 08:42:30;;;;;;;;;;;;;;;;;;5113026;28;20392;-54
2022/10/31 08:44:57;;;;;;;;;;;;;;;;;;5113169;28;19928;-55
2022/10/31 08:47:24;;;;;;;;;;;;;;;;;;5113430;28;19976;-54
2022/10/31 08:49:51;;;;;;;;;;;;;;;;;;5112636;28;19993;-56
2022/10/31 08:52:17;;;;;;;;;;;;;;;;;;5113077;28;19948;-52
2022/10/31 08:54:44;;;;;;;;;;;;;;;;;;5112590;28;19924;-56
2022/10/31 08:57:10;;;;;;;;;;;;;;;;;;5113093;28;19924;-52
2022/10/31 08:59:37;;;;;;;;;;;;;;;;;;5112972;28;20391;-54
2022/10/31 09:02:05;;;;;;;;;;;;;;;;;;5112589;28;19975;-55
2022/10/31 09:04:32;;;;;;;;;;;;;;;;;;5112665;27;20355;-55
2022/10/31 09:06:58;;;;;;;;;;;;;;;;;;5112716;28;19924;-53
2022/10/31 09:09:25;;;;;;;;;;;;;;;;;;5112601;28;19976;-53
2022/10/31 09:11:51;;;;;;;;;;;;;;;;;;5112575;28;19977;-53
2022/10/31 09:14:18;;;;;;;;;;;;;;;;;;5112627;28;19923;-55
2022/10/31 09:16:44;;;;;;;;;;;;;;;;;;5112141;28;19931;-57
2022/10/31 09:19:12;;;;;;;;;;;;;;;;;;5111993;28;20004;-57
2022/10/31 09:21:39;;;;;;;;;;;;;;;;;;5112591;28;19941;-57
2022/10/31 09:24:06;;;;;;;;;;;;;;;;;;5112568;27;19927;-55
2022/10/31 09:26:34;;;;;;;;;;;;;;;;;;5111481;28;19924;-55
2022/10/31 09:29:01;;;;;;;;;;;;;;;;;;5113033;28;19935;-54
2022/10/31 09:31:28;;;;;;;;;;;;;;;;;;5112834;28;20166;-59
2022/10/31 09:33:55;;;;;;;;;;;;;;;;;;5111850;28;19924;-54
2022/10/31 09:36:22;;;;;;;;;;;;;;;;;;5111711;28;19924;-55
2022/10/31 09:38:49;;;;;;;;;;;;;;;;;;5111692;28;19923;-54
2022/10/31 09:41:20;;;;;;;;;;;;;;;;;;5111864;28;20300;-56
2022/10/31 09:43:50;;;;;;;;;;;;;;;;;;5109297;28;20286;-58
2022/10/31 09:46:21;;;;;;;;;;;;;;;;;;5112136;28;19932;-53
2022/10/31 09:48:53;;;;;;;;;;;;;;;;;;5109467;28;20226;-58
2022/10/31 09:51:21;;;;;;;;;;;;;;;;;;5112394;27;19927;-51
2022/10/31 09:53:51;;;;;;;;;;;;;;;;;;5111525;28;20409;-56
2022/10/31 09:56:19;;;;;;;;;;;;;;;;;;5111928;28;20468;-58
2022/10/31 09:58:46;;;;;;;;;;;;;;;;;;5110918;28;19976;-60
2022/10/31 10:01:20;;;;;;;;;;;;;;;;;;5113146;28;19968;-59
2022/10/31 10:03:50;;;;;;;;;;;;;;;;;;5112463;28;19924;-60
2022/10/31 10:06:19;;;;;;;;;;;;;;;;;;5111325;28;20328;-60
2022/10/31 10:08:45;;;;;;;;;;;;;;;;;;5111917;28;19923;-60
2022/10/31 10:11:24;;;;;;;;;;;;;;;;;;5111939;28;20040;-59
2022/10/31 10:14:05;;;;;;;;;;;;;;;;;;5111395;28;19928;-60
2022/10/31 10:16:41;;;;;;;;;;;;;;;;;;5111705;28;19969;-59
2022/10/31 10:19:16;;;;;;;;;;;;;;;;;;5111542;28;19931;-58
2022/10/31 10:21:47;;;;;;;;;;;;;;;;;;5111442;28;19931;-60
2022/10/31 10:24:19;;;;;;;;;;;;;;;;;;5111342;28;19976;-59
2022/10/31 10:26:53;;;;;;;;;;;;;;;;;;5111573;28;19928;-60
2022/10/31 10:29:26;;;;;;;;;;;;;;;;;;5111396;28;19924;-59
2022/10/31 10:31:54;;;;;;;;;;;;;;;;;;5111595;28;19927;-58
2022/10/31 10:34:23;;;;;;;;;;;;;;;;;;5111428;28;19931;-57
2022/10/31 10:36:52;;;;;;;;;;;;;;;;;;5111666;28;20129;-60
2022/10/31 10:39:21;;;;;;;;;;;;;;;;;;5110891;28;19984;-57
2022/10/31 10:50:00;;;;;;;;;;;;;;;;;;5110989;28;19931;-57
2022/10/31 10:52:30;;;;;;;;;;;;;;;;;;5110333;28;20384;-55
2022/10/31 10:55:00;;;;;;;;;;;;;;;;;;5111279;27;19923;-54
2022/10/31 10:57:32;;;;;;;;;;;;;;;;;;5111144;28;19924;-57
2022/10/31 10:59:59;;;;;;;;;;;;;;;;;;5110621;28;20309;-55
2022/10/31 11:02:27;;;;;;;;;;;;;;;;;;5110698;28;19924;-56
2022/10/31 11:04:55;;;;;;;;;;;;;;;;;;5090389;28;20352;-54
2022/10/31 11:07:21;;;;;;;;;;;;;;;;;;5090089;28;19990;-55
2022/10/31 11:09:48;;;;;;;;;;;;;;;;;;5090314;28;19932;-56
2022/10/31 11:12:20;;;;;;;;;;;;;;;;;;5090056;28;19931;-56
2022/10/31 11:14:50;;;;;;;;;;;;;;;;;;5090564;28;19928;-55
2022/10/31 11:17:23;;;;;;;;;;;;;;;;;;5092328;28;19931;-54
2022/10/31 11:20:00;;;;;;;;;;;;;;;;;;5107154;28;19930;-52
2022/10/31 11:22:27;;;;;;;;;;;;;;;;;;5114108;28;19924;-56
2022/10/31 11:24:53;;;;;;;;;;;;;;;;;;5114712;28;19924;-55
2022/10/31 11:27:21;;;;;;;;;;;;;;;;;;5114468;28;19923;-54
2022/10/31 11:29:49;;;;;;;;;;;;;;;;;;5114628;28;19924;-55
2022/10/31 11:32:18;;;;;;;;;;;;;;;;;;5114594;28;19924;-55
2022/10/31 11:34:46;;;;;;;;;;;;;;;;;;5114854;28;19924;-57
2022/10/31 11:37:14;;;;;;;;;;;;;;;;;;5114248;28;19925;-56
2022/10/31 11:39:42;;;;;;;;;;;;;;;;;;5114407;28;19930;-53
2022/10/31 11:42:09;;;;;;;;;;;;;;;;;;5113696;28;19976;-57
2022/10/31 11:44:35;;;;;;;;;;;;;;;;;;5113963;28;19928;-66
2022/10/31 11:47:05;;;;;;;;;;;;;;;;;;5114421;28;19928;-52
2022/10/31 11:49:33;;;;;;;;;;;;;;;;;;5113258;28;19931;-56
2022/10/31 11:52:01;;;;;;;;;;;;;;;;;;5114214;28;19931;-56
2022/10/31 11:54:29;;;;;;;;;;;;;;;;;;5114085;27;19924;-58
2022/10/31 11:56:56;;;;;;;;;;;;;;;;;;5113900;28;20328;-56
2022/10/31 11:59:25;;;;;;;;;;;;;;;;;;5113875;28;20433;-54
2022/10/31 12:01:52;;;;;;;;;;;;;;;;;;5114218;28;19950;-55
2022/10/31 12:04:24;;;;;;;;;;;;;;;;;;5114128;28;19924;-54
2022/10/31 12:06:51;;;;;;;;;;;;;;;;;;5114048;28;19977;-62
2022/10/31 12:09:22;;;;;;;;;;;;;;;;;;5113982;28;19928;-53
2022/10/31 12:11:55;;;;;;;;;;;;;;;;;;5113975;28;19924;-60
2022/10/31 12:14:29;;;;;;;;;;;;;;;;;;5113848;28;20053;-54
2022/10/31 12:16:58;;;;;;;;;;;;;;;;;;5114084;28;19974;-54
2022/10/31 12:19:31;;;;;;;;;;;;;;;;;;5113643;28;19954;-55
2022/10/31 12:22:03;;;;;;;;;;;;;;;;;;5113234;27;19924;-56
2022/10/31 12:24:36;;;;;;;;;;;;;;;;;;5113287;27;19947;-54
2022/10/31 12:27:08;;;;;;;;;;;;;;;;;;5113487;27;19928;-54
2022/10/31 12:29:51;;;;;;;;;;;;;;;;;;5112958;28;20445;-55
2022/10/31 12:32:24;;;;;;;;;;;;;;;;;;5113367;28;19935;-57
2022/10/31 12:35:01;;;;;;;;;;;;;;;;;;5112807;28;19984;-55
2022/10/31 12:37:36;;;;;;;;;;;;;;;;;;5112865;28;19928;-56
2022/10/31 12:40:08;;;;;;;;;;;;;;;;;;5111368;28;19924;-58
2022/10/31 12:42:41;;;;;;;;;;;;;;;;;;5112925;28;19923;-54
2022/10/31 12:45:14;;;;;;;;;;;;;;;;;;5112977;28;20381;-56
2022/10/31 12:47:58;;;;;;;;;;;;;;;;;;5112394;28;20338;-55
2022/10/31 12:50:32;;;;;;;;;;;;;;;;;;5110794;28;20423;-57
2022/10/31 12:53:03;;;;;;;;;;;;;;;;;;5112966;28;19923;-57
2022/10/31 12:55:35;;;;;;;;;;;;;;;;;;5112087;28;19931;-58
2022/10/31 12:58:03;;;;;;;;;;;;;;;;;;5112893;28;19932;-57
2022/10/31 13:00:32;;;;;;;;;;;;;;;;;;5112540;28;19923;-56
2022/10/31 13:03:01;;;;;;;;;;;;;;;;;;5109445;28;20304;-58
2022/10/31 13:05:31;;;;;;;;;;;;;;;;;;5111864;28;19924;-53
2022/10/31 13:07:59;;;;;;;;;;;;;;;;;;5111484;28;19949;-56
2022/10/31 13:10:28;;;;;;;;;;;;;;;;;;5112516;27;20346;-53
2022/10/31 13:12:56;;;;;;;;;;;;;;;;;;5112880;28;19923;-53
2022/10/31 13:15:24;;;;;;;;;;;;;;;;;;5113848;27;19932;-54
2022/10/31 13:17:52;;;;;;;;;;;;;;;;;;5113693;28;20287;-55
2022/10/31 13:20:21;;;;;;;;;;;;;;;;;;5112224;28;19969;-53
2022/10/31 13:22:51;;;;;;;;;;;;;;;;;;5112454;28;20355;-52
2022/10/31 13:25:20;;;;;;;;;;;;;;;;;;5112391;28;19924;-57
2022/10/31 13:27:50;;;;;;;;;;;;;;;;;;5112230;28;20300;-57
2022/10/31 13:30:17;;;;;;;;;;;;;;;;;;5112699;28;20304;-57
2022/10/31 13:32:47;;;;;;;;;;;;;;;;;;5112050;28;20327;-58
2022/10/31 13:35:16;;;;;;;;;;;;;;;;;;5111795;28;19936;-57
2022/10/31 13:37:44;;;;;;;;;;;;;;;;;;5112135;28;19928;-56
2022/10/31 13:40:17;;;;;;;;;;;;;;;;;;5111594;28;19924;-56
2022/10/31 13:42:50;;;;;;;;;;;;;;;;;;5111880;28;20007;-53
2022/10/31 13:45:18;;;;;;;;;;;;;;;;;;5111826;28;19924;-52
2022/10/31 13:47:55;;;;;;;;;;;;;;;;;;5111381;28;19928;-57
2022/10/31 13:50:23;;;;;;;;;;;;;;;;;;5112155;28;19977;-55
2022/10/31 13:52:49;;;;;;;;;;;;;;;;;;5111743;28;19928;-56
2022/10/31 13:55:35;;;;;;;;;;;;;;;;;;5111761;28;19923;-53
2022/10/31 13:58:04;;;;;;;;;;;;;;;;;;5111182;28;20285;-54
2022/10/31 14:00:34;;;;;;;;;;;;;;;;;;5111458;28;20660;-54
2022/10/31 14:03:01;;;;;;;;;;;;;;;;;;5111344;28;19924;-54
2022/10/31 14:05:30;;;;;;;;;;;;;;;;;;5111533;27;19923;-57
2022/10/31 14:07:57;;;;;;;;;;;;;;;;;;5111254;28;19923;-54
2022/10/31 14:10:27;;;;;;;;;;;;;;;;;;5111153;28;19928;-53
2022/10/31 14:12:54;;;;;;;;;;;;;;;;;;5111040;28;20018;-51
2022/10/31 14:15:23;;;;;;;;;;;;;;;;;;5111482;27;19988;-51
2022/10/31 14:17:52;;;;;;;;;;;;;;;;;;5110954;28;19923;-55
2022/10/31 14:20:25;;;;;;;;;;;;;;;;;;5111317;28;20350;-56
2022/10/31 14:22:51;;;;;;;;;;;;;;;;;;5110800;28;19924;-56
2022/10/31 14:25:31;;;;;;;;;;;;;;;;;;5111147;28;19952;-56
2022/10/31 14:27:58;;;;;;;;;;;;;;;;;;5110973;28;20052;-52
2022/10/31 14:30:27;;;;;;;;;;;;;;;;;;5111307;28;19946;-55
2022/10/31 14:32:55;;;;;;;;;;;;;;;;;;5110811;28;20477;-53
2022/10/31 14:35:26;;;;;;;;;;;;;;;;;;5110742;28;19928;-58
2022/10/31 14:38:06;;;;;;;;;;;;;;;;;;5111174;28;20326;-56
2022/10/31 14:40:36;;;;;;;;;;;;;;;;;;5111342;28;19928;-58
2022/10/31 14:43:17;;;;;;;;;;;;;;;;;;5110484;28;19953;-56
2022/10/31 14:45:50;;;;;;;;;;;;;;;;;;5110805;28;19928;-57
2022/10/31 14:48:28;;;;;;;;;;;;;;;;;;5110441;28;19976;-57
2022/10/31 14:50:55;;;;;;;;;;;;;;;;;;5111195;28;19931;-57
2022/10/31 14:53:24;;;;;;;;;;;;;;;;;;5110535;27;19924;-57
2022/10/31 14:55:52;;;;;;;;;;;;;;;;;;5110763;28;20004;-56
2022/10/31 14:58:20;;;;;;;;;;;;;;;;;;5110499;28;20051;-58
2022/10/31 15:00:48;;;;;;;;;;;;;;;;;;5110569;28;19924;-58
2022/10/31 15:03:19;;;;;;;;;;;;;;;;;;5109875;28;21358;-54
2022/10/31 15:05:48;;;;;;;;;;;;;;;;;;5110882;28;20342;-57
2022/10/31 15:08:26;;;;;;;;;;;;;;;;;;5110282;28;20388;-59
2022/10/31 15:10:52;;;;;;;;;;;;;;;;;;5110106;28;19932;-55
2022/10/31 15:13:21;;;;;;;;;;;;;;;;;;5110159;28;19923;-56
2022/10/31 15:15:50;;;;;;;;;;;;;;;;;;5110759;28;20019;-57
2022/10/31 15:18:17;;;;;;;;;;;;;;;;;;5110492;28;20373;-56
2022/10/31 15:20:45;;;;;;;;;;;;;;;;;;5110515;28;19949;-55
2022/10/31 15:23:15;;;;;;;;;;;;;;;;;;5110499;28;20396;-56
2022/10/31 15:25:41;;;;;;;;;;;;;;;;;;5109846;28;19932;-56
2022/10/31 15:28:14;;;;;;;;;;;;;;;;;;5110126;28;20440;-53
2022/10/31 15:30:40;;;;;;;;;;;;;;;;;;5110431;28;19976;-54
2022/10/31 15:33:19;;;;;;;;;;;;;;;;;;5110031;28;19928;-57
2022/10/31 15:35:55;;;;;;;;;;;;;;;;;;5107500;28;19923;-57
2022/10/31 15:38:21;;;;;;;;;;;;;;;;;;5110105;28;19931;-54
2022/10/31 15:40:52;;;;;;;;;;;;;;;;;;5109656;28;19930;-54
2022/10/31 15:43:19;;;;;;;;;;;;;;;;;;5108987;28;19984;-53
2022/10/31 15:45:45;;;;;;;;;;;;;;;;;;5109811;28;19924;-55
2022/10/31 15:48:16;;;;;;;;;;;;;;;;;;5109249;28;19924;-54
2022/10/31 15:50:47;;;;;;;;;;;;;;;;;;5109148;28;19931;-56
2022/10/31 15:53:16;;;;;;;;;;;;;;;;;;5108693;28;19931;-58
2022/10/31 15:55:47;;;;;;;;;;;;;;;;;;5110356;28;19947;-57
2022/10/31 15:58:15;;;;;;;;;;;;;;;;;;5109834;28;20329;-58
2022/10/31 16:00:41;;;;;;;;;;;;;;;;;;5109800;28;19938;-57
2022/10/31 16:03:19;;;;;;;;;;;;;;;;;;5110000;28;20353;-54
2022/10/31 16:05:48;;;;;;;;;;;;;;;;;;5113667;28;19969;-56
2022/10/31 16:08:33;;;;;;;;;;;;;;;;;;5113477;28;19963;-56
2022/10/31 16:11:00;;;;;;;;;;;;;;;;;;5113663;28;19924;-55
2022/10/31 16:13:28;;;;;;;;;;;;;;;;;;5113294;27;19924;-56
2022/10/31 16:15:55;;;;;;;;;;;;;;;;;;5113952;28;19950;-56
2022/10/31 16:18:22;;;;;;;;;;;;;;;;;;5113703;28;19953;-57
2022/10/31 16:20:52;;;;;;;;;;;;;;;;;;5113785;28;19924;-55
2022/10/31 16:23:19;;;;;;;;;;;;;;;;;;5113967;27;19924;-55
2022/10/31 16:25:46;;;;;;;;;;;;;;;;;;5113516;28;19924;-57
2022/10/31 16:28:16;;;;;;;;;;;;;;;;;;5113302;28;20381;-56
2022/10/31 16:30:43;;;;;;;;;;;;;;;;;;5113671;28;19931;-54
2022/10/31 16:33:21;;;;;;;;;;;;;;;;;;5113317;28;20166;-57
2022/10/31 16:35:49;;;;;;;;;;;;;;;;;;5113277;28;19936;-55
2022/10/31 16:38:16;;;;;;;;;;;;;;;;;;5113326;28;19923;-56
2022/10/31 16:40:43;;;;;;;;;;;;;;;;;;5113160;28;19924;-55
2022/10/31 16:43:11;;;;;;;;;;;;;;;;;;5113313;28;20312;-56
2022/10/31 16:45:42;;;;;;;;;;;;;;;;;;5113388;28;19931;-56
2022/10/31 16:48:11;;;;;;;;;;;;;;;;;;5113236;28;19924;-56
2022/10/31 16:50:38;;;;;;;;;;;;;;;;;;5113355;28;20338;-58
2022/10/31 16:53:06;;;;;;;;;;;;;;;;;;5111659;28;19932;-53
2022/10/31 16:55:34;;;;;;;;;;;;;;;;;;5112692;28;19924;-55
2022/10/31 16:58:01;;;;;;;;;;;;;;;;;;5112123;28;19923;-55
2022/10/31 17:00:28;;;;;;;;;;;;;;;;;;5112410;28;19924;-51
2022/10/31 17:02:58;;;;;;;;;;;;;;;;;;5112415;28;19927;-50